Time;durP1;ratioP1;P1;durP2;ratioP2;P2;SDS_P1;SDS_P2;PMS_P1;PMS_P2;Temp;Humidity;BMP_temperature;BMP_pressure;BME280_temperature;BME280_humidity;BME280_pressure;Samples;Min_cycle;Max_cycle;Signal;HPM_P1;HPM_P2
2021/03/18 00:02:08;;;;;;;;;;;;;;;;;;;;;
2021/03/18 00:04:39;;;;;;;16.45;10.52;;;-1.30;99.90;;;;;;5019768;28;20137;-86
2021/03/18 00:07:06;;;;;;;17.88;10.80;;;-1.40;99.90;;;;;;5002840;28;20061;-87
2021/03/18 00:09:32;;;;;;;19.80;9.98;;;-1.40;99.90;;;;;;5035419;28;20049;-88
2021/03/18 00:12:09;;;;;;;23.67;10.77;;;-1.50;99.90;;;;;;5022416;28;20452;-88
2021/03/18 00:14:35;;;;;;;22.63;10.45;;;-1.50;99.90;;;;;;5025315;28;20360;-88
2021/03/18 00:17:04;;;;;;;18.33;9.75;;;-1.60;99.90;;;;;;5031769;28;20120;-90
2021/03/18 00:19:31;;;;;;;17.52;10.30;;;-1.60;99.90;;;;;;5021020;28;20066;-88
2021/03/18 00:22:01;;;;;;;16.48;10.25;;;-1.80;99.90;;;;;;5028992;28;20046;-87
2021/03/18 00:24:31;;;;;;;20.08;10.27;;;-1.80;99.90;;;;;;5026401;28;20482;-86
2021/03/18 00:27:07;;;;;;;20.23;10.45;;;-1.90;99.90;;;;;;5005208;28;20046;-88
2021/03/18 00:29:33;;;;;;;22.88;11.30;;;-1.90;99.90;;;;;;5020502;28;20053;-88
2021/03/18 00:32:09;;;;;;;19.35;10.88;;;-1.90;99.90;;;;;;5026079;28;20057;-89
2021/03/18 00:34:36;;;;;;;23.35;12.10;;;-1.90;99.90;;;;;;5026189;28;20050;-86
2021/03/18 00:37:09;;;;;;;20.83;12.30;;;-1.90;99.90;;;;;;5020039;28;20041;-88
2021/03/18 00:39:36;;;;;;;22.88;12.60;;;-1.80;99.90;;;;;;5018320;28;20029;-88
2021/03/18 00:42:08;;;;;;;23.13;12.27;;;-1.80;99.90;;;;;;5048133;28;20087;-87
2021/03/18 00:44:36;;;;;;;25.23;13.52;;;-1.70;99.90;;;;;;5051236;28;20046;-88
2021/03/18 00:47:08;;;;;;;21.02;12.88;;;-1.60;99.90;;;;;;5020491;28;20052;-87
2021/03/18 00:49:35;;;;;;;25.08;13.57;;;-1.50;99.90;;;;;;5029737;28;20042;-87
2021/03/18 00:52:07;;;;;;;28.23;13.00;;;-1.40;99.90;;;;;;5052688;28;20076;-87
2021/03/18 00:54:33;;;;;;;21.60;13.10;;;-1.20;99.90;;;;;;5052626;28;20049;-87
2021/03/18 00:57:03;;;;;;;24.33;13.13;;;-1.20;99.90;;;;;;5037409;28;20053;-87
2021/03/18 00:59:30;;;;;;;24.48;13.30;;;-1.10;99.90;;;;;;5045848;28;20438;-86
2021/03/18 01:02:04;;;;;;;25.45;11.75;;;-1.10;99.90;;;;;;5029686;28;20135;-88
2021/03/18 01:04:31;;;;;;;20.40;11.88;;;-1.10;99.90;;;;;;5012292;28;20171;-86
2021/03/18 01:06:57;;;;;;;25.85;13.07;;;-1.00;99.90;;;;;;5006758;28;20086;-88
2021/03/18 01:09:26;;;;;;;19.83;12.35;;;-1.00;99.90;;;;;;5012002;28;20113;-88
2021/03/18 01:11:52;;;;;;;21.85;11.57;;;-1.10;99.90;;;;;;5000685;28;20041;-88
2021/03/18 01:14:20;;;;;;;22.50;12.18;;;-1.10;99.90;;;;;;5012879;28;20382;-88
2021/03/18 01:16:51;;;;;;;21.73;11.82;;;-1.10;99.90;;;;;;4993842;28;20065;-87
2021/03/18 01:19:22;;;;;;;21.67;11.45;;;-1.10;99.90;;;;;;5013493;28;20045;-87
2021/03/18 01:21:52;;;;;;;23.67;13.40;;;-1.10;99.90;;;;;;5029513;28;20073;-87
2021/03/18 01:24:19;;;;;;;19.90;11.93;;;-1.00;99.90;;;;;;5025510;28;20046;-86
2021/03/18 01:26:48;;;;;;;21.33;12.20;;;-1.00;99.90;;;;;;5032476;28;20074;-88
2021/03/18 01:29:15;;;;;;;21.35;11.35;;;-1.00;99.90;;;;;;5006222;28;20046;-89
2021/03/18 01:31:42;;;;;;;19.77;11.13;;;-0.90;99.90;;;;;;5024654;28;20053;-86
2021/03/18 01:34:12;;;;;;;19.17;12.05;;;-0.90;99.90;;;;;;5012093;28;20100;-86
2021/03/18 01:36:40;;;;;;;20.17;11.95;;;-0.80;99.90;;;;;;5011670;28;20404;-85
2021/03/18 01:39:13;;;;;;;16.80;11.57;;;-0.80;99.90;;;;;;4991759;28;20455;-89
2021/03/18 01:41:39;;;;;;;;;;;-0.70;99.90;;;;;;5023217;28;20085;-87
2021/03/18 01:44:12;;;;;;;18.63;11.02;;;-0.70;99.90;;;;;;5008011;28;19920;-88
2021/03/18 01:46:40;;;;;;;19.02;12.10;;;-0.70;99.90;;;;;;5024806;28;20060;-88
2021/03/18 01:49:14;;;;;;;23.55;11.85;;;-0.70;99.90;;;;;;5015073;28;20037;-88
2021/03/18 01:51:41;;;;;;;20.25;11.52;;;-0.60;99.90;;;;;;5025534;28;20064;-87
2021/03/18 01:54:09;;;;;;;19.10;11.45;;;-0.60;99.90;;;;;;5032808;28;20045;-87
2021/03/18 01:56:37;;;;;;;19.67;11.27;;;-0.60;99.90;;;;;;5032351;28;20050;-88
2021/03/18 01:59:11;;;;;;;20.75;10.95;;;-0.60;99.90;;;;;;5009072;28;20451;-88
2021/03/18 02:01:37;;;;;;;20.02;10.75;;;-0.60;99.90;;;;;;5025315;28;20111;-87
2021/03/18 02:04:06;;;;;;;19.17;10.75;;;-0.60;99.90;;;;;;5023982;28;20058;-90
2021/03/18 02:06:33;;;;;;;18.60;10.23;;;-0.60;99.90;;;;;;4998495;28;20156;-86
2021/03/18 02:09:12;;;;;;;18.58;9.95;;;-0.60;99.90;;;;;;4999342;28;20046;-87
2021/03/18 02:11:38;;;;;;;18.33;9.93;;;-0.60;99.90;;;;;;5025786;28;20092;-86
2021/03/18 02:14:08;;;;;;;13.43;9.70;;;-0.60;99.90;;;;;;5029913;28;20049;-87
2021/03/18 02:16:42;;;;;;;15.20;10.00;;;-0.70;99.90;;;;;;5024376;28;20051;-87
2021/03/18 02:19:45;;;;;;;17.85;9.55;;;-0.70;99.90;;;;;;5023537;28;20045;-88
2021/03/18 02:22:40;;;;;;;19.85;9.57;;;-0.70;99.90;;;;;;5011258;28;20062;-88
2021/03/18 02:25:07;;;;;;;14.00;9.70;;;-0.70;99.90;;;;;;5025232;28;20045;-88
2021/03/18 02:28:27;;;;;;;15.05;10.48;;;-0.70;99.90;;;;;;5028574;28;20365;-87
2021/03/18 02:31:03;;;;;;;18.88;11.20;;;-0.70;99.90;;;;;;5005748;28;20430;-87
2021/03/18 02:34:08;;;;;;;20.63;13.25;;;-0.70;99.90;;;;;;5030073;28;20126;-87
2021/03/18 02:36:52;;;;;;;21.10;13.10;;;-0.70;99.90;;;;;;5003231;28;20054;-87
2021/03/18 02:39:34;;;;;;;23.67;13.18;;;-0.70;99.90;;;;;;5023804;28;20103;-88
2021/03/18 02:42:05;;;;;;;22.00;13.77;;;-0.70;99.90;;;;;;5025606;28;20056;-87
2021/03/18 02:44:35;;;;;;;25.58;13.88;;;-0.70;99.90;;;;;;5021211;28;20072;-87
2021/03/18 02:47:08;;;;;;;27.17;13.18;;;-0.70;99.90;;;;;;5006189;28;20053;-89
2021/03/18 02:49:42;;;;;;;23.52;13.35;;;-0.70;99.90;;;;;;5006096;28;20046;-87
2021/03/18 02:52:13;;;;;;;28.13;14.85;;;-0.70;99.90;;;;;;5006965;28;20410;-87
2021/03/18 02:54:43;;;;;;;18.75;12.52;;;-0.70;99.90;;;;;;5009908;28;20343;-88
2021/03/18 02:57:14;;;;;;;24.65;12.88;;;-0.70;99.90;;;;;;5005230;28;20199;-87
2021/03/18 02:59:46;;;;;;;21.70;12.77;;;-0.70;99.90;;;;;;5006344;28;20432;-87
2021/03/18 03:02:18;;;;;;;22.75;12.98;;;-0.70;99.90;;;;;;5023803;28;20046;-88
2021/03/18 03:04:47;;;;;;;;;;;-0.70;99.90;;;;;;5002997;28;20080;-87
2021/03/18 03:07:14;;;;;;;18.63;10.05;;;-0.70;99.90;;;;;;5006062;28;19983;-87
2021/03/18 03:09:43;;;;;;;17.02;9.25;;;-0.70;99.90;;;;;;5021709;28;20046;-88
2021/03/18 03:12:11;;;;;;;17.10;9.18;;;-0.70;99.90;;;;;;5005124;28;20145;-88
2021/03/18 03:14:40;;;;;;;18.88;9.23;;;-0.70;99.90;;;;;;5005763;28;20048;-88
2021/03/18 03:17:09;;;;;;;19.92;9.82;;;-0.80;99.90;;;;;;5023520;28;20057;-87
2021/03/18 03:19:41;;;;;;;19.52;9.38;;;-0.80;99.90;;;;;;5021862;28;20038;-88
2021/03/18 03:22:13;;;;;;;25.35;10.13;;;-0.70;99.90;;;;;;5022894;28;20037;-88
2021/03/18 03:24:43;;;;;;;19.23;9.88;;;-0.70;99.90;;;;;;5025959;28;20047;-87
2021/03/18 03:27:11;;;;;;;16.92;11.02;;;-0.70;99.90;;;;;;5033255;28;20136;-86
2021/03/18 03:29:45;;;;;;;25.55;10.73;;;-0.60;99.90;;;;;;5021272;28;20049;-86
2021/03/18 03:32:13;;;;;;;20.88;10.35;;;-0.70;99.90;;;;;;5052941;28;20041;-86
2021/03/18 03:34:42;;;;;;;20.55;10.02;;;-0.60;99.90;;;;;;5040960;28;20105;-86
2021/03/18 03:37:10;;;;;;;20.05;11.13;;;-0.60;99.90;;;;;;5027568;28;20116;-88
2021/03/18 03:39:38;;;;;;;19.50;10.55;;;-0.60;99.90;;;;;;5055421;28;20037;-86
2021/03/18 03:42:09;;;;;;;20.98;10.80;;;-0.70;99.90;;;;;;5021750;28;20057;-87
2021/03/18 03:44:38;;;;;;;17.45;10.57;;;-0.60;99.90;;;;;;5046369;28;20056;-87
2021/03/18 03:47:10;;;;;;;19.30;11.05;;;-0.70;99.90;;;;;;5030852;28;20054;-88
2021/03/18 03:49:47;;;;;;;14.60;9.55;;;-0.70;99.90;;;;;;5008801;28;20141;-89
2021/03/18 03:52:32;;;;;;;17.88;10.60;;;-0.70;99.90;;;;;;5004813;28;20120;-87
2021/03/18 03:55:29;;;;;;;19.73;11.10;;;-0.70;99.90;;;;;;5010366;28;20358;-88
2021/03/18 03:58:00;;;;;;;18.48;11.15;;;-0.70;99.90;;;;;;4997377;28;20053;-87
2021/03/18 04:00:32;;;;;;;19.33;11.15;;;-0.70;99.90;;;;;;5013314;28;20121;-87
2021/03/18 04:03:07;;;;;;;20.25;12.30;;;-0.60;99.90;;;;;;5027401;28;20089;-88
2021/03/18 04:05:41;;;;;;;18.77;10.27;;;-0.70;99.90;;;;;;5029842;28;20045;-86
2021/03/18 04:08:11;;;;;;;22.90;11.13;;;-0.60;99.90;;;;;;5030367;28;20338;-87
2021/03/18 04:10:42;;;;;;;17.38;11.48;;;-0.60;99.90;;;;;;5031654;28;20412;-88
2021/03/18 04:13:11;;;;;;;17.90;11.13;;;-0.60;99.90;;;;;;5024705;28;20132;-88
2021/03/18 04:15:39;;;;;;;19.48;11.23;;;-0.60;99.90;;;;;;5008974;28;20167;-88
2021/03/18 04:18:09;;;;;;;18.25;11.05;;;-0.60;99.90;;;;;;5030006;28;20370;-88
2021/03/18 04:20:38;;;;;;;17.35;10.93;;;-0.60;99.90;;;;;;5010781;28;20130;-88
2021/03/18 04:23:08;;;;;;;21.48;11.77;;;-0.60;99.90;;;;;;5015931;28;20041;-88
2021/03/18 04:25:36;;;;;;;20.30;11.57;;;-0.60;99.90;;;;;;5025720;28;20064;-88
2021/03/18 04:28:10;;;;;;;21.30;11.77;;;-0.60;99.90;;;;;;5030392;28;20049;-88
2021/03/18 04:30:39;;;;;;;19.70;12.35;;;-0.70;99.90;;;;;;5010374;28;20080;-87
2021/03/18 04:33:10;;;;;;;22.67;12.15;;;-0.60;99.90;;;;;;5012364;28;20137;-88
2021/03/18 04:35:42;;;;;;;22.50;12.88;;;-0.70;99.90;;;;;;5033630;28;20045;-87
2021/03/18 04:38:09;;;;;;;20.67;12.65;;;-0.70;99.90;;;;;;5021857;28;20042;-87
2021/03/18 04:40:36;;;;;;;20.52;11.88;;;-0.70;99.90;;;;;;5027282;28;20056;-89
2021/03/18 04:43:04;;;;;;;19.63;11.30;;;-0.70;99.90;;;;;;5031465;28;20088;-88
2021/03/18 04:45:32;;;;;;;16.23;11.07;;;-0.70;99.90;;;;;;5023884;28;20041;-87
2021/03/18 04:48:03;;;;;;;24.73;12.10;;;-0.70;99.90;;;;;;5033017;28;20104;-89
2021/03/18 04:50:33;;;;;;;21.90;11.93;;;-0.70;99.90;;;;;;5014661;28;20305;-87
2021/03/18 04:53:04;;;;;;;17.80;11.77;;;-0.70;99.90;;;;;;4997462;28;20102;-89
2021/03/18 04:55:33;;;;;;;23.30;13.23;;;-0.70;99.90;;;;;;5026926;28;20045;-87
2021/03/18 04:58:10;;;;;;;24.67;13.68;;;-0.70;99.90;;;;;;5020812;28;20068;-88
2021/03/18 05:00:39;;;;;;;25.40;16.00;;;-0.70;99.90;;;;;;5009607;28;20068;-86
2021/03/18 05:03:12;;;;;;;26.63;13.45;;;-0.70;99.90;;;;;;5025940;28;20053;-87
2021/03/18 05:05:39;;;;;;;21.05;12.27;;;-0.60;99.90;;;;;;5026303;28;20041;-87
2021/03/18 05:08:08;;;;;;;21.65;12.50;;;-0.60;99.90;;;;;;5028925;28;20435;-87
2021/03/18 05:10:40;;;;;;;21.83;12.73;;;-0.60;99.90;;;;;;5016710;28;20059;-87
2021/03/18 05:13:09;;;;;;;18.38;11.80;;;-0.60;99.90;;;;;;5011970;28;20073;-88
2021/03/18 05:15:40;;;;;;;18.63;11.35;;;-0.60;99.90;;;;;;5024918;28;20052;-90
2021/03/18 05:18:13;;;;;;;21.50;12.88;;;-0.60;99.90;;;;;;5030244;28;20112;-87
2021/03/18 05:20:44;;;;;;;21.15;12.38;;;-0.60;99.90;;;;;;5011920;28;20104;-88
2021/03/18 05:23:15;;;;;;;24.23;11.27;;;-0.60;99.90;;;;;;5034540;28;20046;-88
2021/03/18 05:25:42;;;;;;;22.70;12.63;;;-0.60;99.90;;;;;;5011396;28;20041;-89
2021/03/18 05:28:12;;;;;;;23.50;13.07;;;-0.60;99.90;;;;;;5032913;28;20038;-90
2021/03/18 05:30:41;;;;;;;22.73;12.40;;;-0.60;99.90;;;;;;5048660;28;20041;-88
2021/03/18 05:33:08;;;;;;;23.77;12.10;;;-0.60;99.90;;;;;;5053862;28;20045;-88
2021/03/18 05:35:41;;;;;;;20.45;13.32;;;-0.60;99.90;;;;;;5034768;28;20050;-89
2021/03/18 05:38:09;;;;;;;14.38;9.48;;;-0.60;99.90;;;;;;5008918;28;20041;-88
2021/03/18 05:40:37;;;;;;;24.67;12.43;;;-0.50;99.90;;;;;;5022874;28;20042;-87
2021/03/18 05:43:06;;;;;;;21.45;12.07;;;-0.50;99.90;;;;;;5011558;28;20048;-88
2021/03/18 05:45:33;;;;;;;22.98;12.35;;;-0.50;99.90;;;;;;5023198;28;20042;-89
2021/03/18 05:48:03;;;;;;;23.02;13.77;;;-0.50;99.90;;;;;;5017788;28;20060;-88
2021/03/18 05:50:33;;;;;;;20.88;12.05;;;-0.50;99.90;;;;;;5028661;28;20117;-88
2021/03/18 05:53:11;;;;;;;24.80;14.13;;;-0.40;99.90;;;;;;4986316;28;20492;-87
2021/03/18 05:55:40;;;;;;;23.85;14.90;;;-0.40;99.90;;;;;;5020578;28;20065;-87
2021/03/18 05:58:08;;;;;;;24.10;13.82;;;-0.40;99.90;;;;;;5020745;28;20423;-87
2021/03/18 06:00:36;;;;;;;21.45;12.43;;;-0.40;99.90;;;;;;5038653;28;20049;-88
2021/03/18 06:03:03;;;;;;;19.13;11.75;;;-0.30;99.90;;;;;;5024045;28;20057;-88
2021/03/18 06:05:32;;;;;;;28.02;14.32;;;-0.30;99.90;;;;;;5028575;28;20119;-88
2021/03/18 06:08:09;;;;;;;24.33;12.82;;;-0.30;99.90;;;;;;5039041;28;20077;-88
2021/03/18 06:10:36;;;;;;;27.25;11.35;;;-0.30;99.90;;;;;;5014106;28;20042;-88
2021/03/18 06:13:05;;;;;;;16.67;11.30;;;-0.30;99.90;;;;;;5023807;28;20061;-88
2021/03/18 06:15:32;;;;;;;18.95;12.00;;;-0.30;99.90;;;;;;5035092;28;20065;-88
2021/03/18 06:18:04;;;;;;;21.70;12.10;;;-0.30;99.90;;;;;;5015414;28;20041;-89
2021/03/18 06:20:35;;;;;;;19.02;12.13;;;-0.20;99.90;;;;;;5014047;28;20123;-88
2021/03/18 06:23:09;;;;;;;24.38;12.93;;;-0.20;99.90;;;;;;5032419;28;20109;-89
2021/03/18 06:25:37;;;;;;;22.10;12.50;;;0.00;99.90;;;;;;5051401;28;20053;-90
2021/03/18 06:28:20;;;;;;;23.23;13.20;;;0.10;99.90;;;;;;5032379;28;20033;-88
2021/03/18 06:31:05;;;;;;;20.45;12.25;;;0.10;99.90;;;;;;5030089;28;20430;-87
2021/03/18 06:33:51;;;;;;;19.05;11.52;;;0.20;99.90;;;;;;5039939;28;20105;-88
2021/03/18 06:36:32;;;;;;;21.05;11.93;;;0.20;99.90;;;;;;5021163;28;20064;-87
2021/03/18 06:39:20;;;;;;;18.33;11.20;;;0.30;99.90;;;;;;4995794;28;20053;-88
2021/03/18 06:41:56;;;;;;;23.08;12.10;;;0.30;99.90;;;;;;5013278;28;20142;-85
2021/03/18 06:44:30;;;;;;;19.05;11.07;;;0.30;99.90;;;;;;4994775;28;20053;-83
2021/03/18 06:46:57;;;;;;;;;;;0.40;99.90;;;;;;4997138;28;20486;-83
2021/03/18 06:49:28;;;;;;;21.58;12.57;;;0.50;99.90;;;;;;4976770;28;19936;-83
2021/03/18 06:52:08;;;;;;;19.15;12.05;;;0.50;99.90;;;;;;4997970;28;20113;-87
2021/03/18 06:54:43;;;;;;;27.02;14.35;;;0.60;99.90;;;;;;4999970;28;20070;-87
2021/03/18 06:57:11;;;;;;;24.88;12.73;;;0.70;99.90;;;;;;4979148;28;20081;-87
2021/03/18 06:59:41;;;;;;;21.23;12.90;;;0.70;99.90;;;;;;4995632;28;20054;-85
2021/03/18 07:02:16;;;;;;;19.50;11.70;;;0.70;99.90;;;;;;4972426;28;20058;-88
2021/03/18 07:04:47;;;;;;;22.85;12.80;;;0.80;99.90;;;;;;4979803;28;20049;-87
2021/03/18 07:07:15;;;;;;;21.35;13.07;;;0.90;99.90;;;;;;4991057;28;20134;-87
2021/03/18 07:09:44;;;;;;;23.95;11.80;;;1.00;99.90;;;;;;5011374;28;20099;-85
2021/03/18 07:12:19;;;;;;;21.90;12.03;;;1.20;99.90;;;;;;5030918;28;20076;-88
2021/03/18 07:15:03;;;;;;;;;;;;;;;;;;;;;
2021/03/18 07:18:05;;;;;;;21.10;12.40;;;1.70;99.90;;;;;;5040620;28;20403;-88
2021/03/18 07:20:54;;;;;;;20.88;11.70;;;1.90;99.90;;;;;;5007226;28;20130;-90
2021/03/18 07:23:35;;;;;;;17.23;11.35;;;2.00;99.90;;;;;;5047051;28;20048;-90
2021/03/18 07:26:22;;;;;;;17.90;10.55;;;2.20;99.90;;;;;;5045950;28;20140;-88
2021/03/18 07:29:31;;;;;;;19.30;10.73;;;2.30;99.90;;;;;;5042312;28;20046;-89
2021/03/18 07:32:25;;;;;;;13.55;9.52;;;2.60;99.90;;;;;;5032359;28;20045;-90
2021/03/18 07:34:54;;;;;;;15.40;9.05;;;3.00;99.90;;;;;;5033545;28;20095;-87
2021/03/18 07:37:21;;;;;;;16.98;9.13;;;3.40;99.90;;;;;;5033606;28;20041;-88
2021/03/18 07:39:48;;;;;;;16.80;9.10;;;3.70;99.90;;;;;;5015246;28;20053;-89
2021/03/18 07:42:24;;;;;;;16.52;8.82;;;4.10;99.90;;;;;;5000091;28;20052;-88
2021/03/18 07:45:12;;;;;;;19.58;10.23;;;3.90;99.90;;;;;;5001312;28;20037;-89
2021/03/18 07:48:14;;;;;;;17.02;8.93;;;3.90;99.90;;;;;;5016904;28;20443;-88
2021/03/18 07:50:41;;;;;;;15.45;9.52;;;4.10;99.90;;;;;;5032461;28;20053;-87
2021/03/18 07:53:16;;;;;;;15.90;9.80;;;4.10;99.90;;;;;;5016179;28;20045;-89
2021/03/18 07:55:46;;;;;;;13.60;8.45;;;4.20;99.90;;;;;;5013635;28;20773;-89
2021/03/18 07:58:14;;;;;;;17.33;9.18;;;4.50;99.90;;;;;;5033346;28;20128;-87
2021/03/18 08:00:44;;;;;;;15.20;8.82;;;4.80;99.90;;;;;;5015909;28;20052;-89
2021/03/18 08:03:22;;;;;;;14.05;8.57;;;5.10;99.90;;;;;;5033567;28;20458;-89
2021/03/18 08:05:50;;;;;;;15.70;9.27;;;5.50;99.90;;;;;;5031936;28;20144;-89
2021/03/18 08:08:32;;;;;;;13.20;8.95;;;5.90;99.90;;;;;;5033315;28;20052;-88
2021/03/18 08:11:20;;;;;;;12.23;8.18;;;6.80;99.90;;;;;;5028254;28;20044;-89
2021/03/18 08:13:47;;;;;;;14.88;7.93;;;7.50;99.90;;;;;;5036222;28;20037;-89
2021/03/18 08:16:26;;;;;;;11.27;7.80;;;8.50;99.90;;;;;;4984065;28;20053;-88
2021/03/18 08:18:54;;;;;;;12.43;7.97;;;9.10;93.90;;;;;;5031766;28;20045;-88
2021/03/18 08:21:29;;;;;;;11.63;8.32;;;8.80;99.30;;;;;;5034215;28;20447;-89
2021/03/18 08:23:59;;;;;;;14.60;8.00;;;9.20;99.90;;;;;;5037254;28;20057;-88
2021/03/18 08:26:38;;;;;;;15.95;8.63;;;9.30;90.30;;;;;;5012291;28;20080;-92
2021/03/18 08:29:58;;;;;;;;;;;;;;;;;;;;;
2021/03/18 08:32:54;;;;;;;14.75;8.18;;;9.90;89.00;;;;;;4954739;29;20061;-90
2021/03/18 08:35:31;;;;;;;11.85;7.68;;;10.60;86.70;;;;;;4933257;29;20047;-91
2021/03/18 08:38:20;;;;;;;11.70;7.85;;;11.30;83.80;;;;;;4945202;29;20058;-91
2021/03/18 08:41:28;;;;;;;11.68;7.65;;;11.60;76.80;;;;;;4938367;29;20186;-91
2021/03/18 08:44:20;;;;;;;13.50;7.95;;;11.60;73.50;;;;;;4923632;29;20051;-90
2021/03/18 08:47:00;;;;;;;11.05;7.20;;;11.30;74.80;;;;;;4954588;29;20051;-88
2021/03/18 08:49:33;;;;;;;10.43;7.72;;;10.70;71.70;;;;;;4951215;29;20052;-88
2021/03/18 08:52:38;;;;;;;9.85;7.07;;;10.30;74.20;;;;;;4925624;29;20242;-87
2021/03/18 08:55:34;;;;;;;11.90;8.27;;;10.80;70.60;;;;;;4932490;29;20047;-86
2021/03/18 08:58:01;;;;;;;14.13;8.70;;;10.90;72.90;;;;;;5027975;28;20061;-92
2021/03/18 09:00:33;;;;;;;11.40;7.57;;;11.50;73.60;;;;;;4987426;28;20382;-91
2021/03/18 09:03:06;;;;;;;9.27;7.22;;;11.30;69.80;;;;;;5018022;28;20037;-87
2021/03/18 09:05:34;;;;;;;11.98;7.90;;;11.10;69.30;;;;;;5019213;28;20120;-87
2021/03/18 09:08:08;;;;;;;13.57;8.30;;;11.00;69.60;;;;;;5035418;28;20127;-88
2021/03/18 09:10:39;;;;;;;10.43;7.60;;;11.10;73.30;;;;;;5032835;28;20046;-88
2021/03/18 09:13:20;;;;;;;11.98;7.82;;;10.80;67.20;;;;;;5036040;28;20045;-87
2021/03/18 09:16:07;;;;;;;13.27;8.10;;;9.90;71.60;;;;;;5032125;28;20092;-89
2021/03/18 09:18:35;;;;;;;13.18;8.85;;;8.60;74.80;;;;;;5031074;28;20057;-86
2021/03/18 09:21:11;;;;;;;12.32;9.40;;;7.70;91.20;;;;;;5041273;28;20072;-89
2021/03/18 09:23:44;;;;;;;13.90;8.85;;;8.30;94.10;;;;;;5044346;28;20049;-89
2021/03/18 09:26:18;;;;;;;16.05;8.85;;;9.80;79.60;;;;;;5033791;28;20064;-89
2021/03/18 09:28:51;;;;;;;13.05;8.27;;;10.40;81.20;;;;;;5046886;28;20049;-89
2021/03/18 09:31:25;;;;;;;15.25;7.28;;;10.90;75.70;;;;;;5037054;28;20061;-90
2021/03/18 09:33:55;;;;;;;11.90;7.10;;;10.90;72.90;;;;;;5035338;28;20107;-89
2021/03/18 09:36:27;;;;;;;10.65;7.60;;;10.60;72.20;;;;;;5036231;28;20064;-89
2021/03/18 09:39:09;;;;;;;10.85;7.75;;;10.00;76.70;;;;;;5032364;28;20049;-86
2021/03/18 09:41:41;;;;;;;12.75;8.02;;;9.50;84.20;;;;;;5028432;28;20103;-87
2021/03/18 09:44:22;;;;;;;9.77;7.45;;;9.10;82.70;;;;;;5017945;28;20343;-88
2021/03/18 09:47:04;;;;;;;11.55;7.47;;;8.80;86.50;;;;;;5033396;28;20073;-87
2021/03/18 09:49:39;;;;;;;11.60;8.40;;;8.50;92.80;;;;;;5035432;28;20049;-90
2021/03/18 09:52:20;;;;;;;12.82;9.25;;;8.10;84.30;;;;;;5042439;28;20046;-87
2021/03/18 09:54:47;;;;;;;12.98;8.65;;;7.90;92.90;;;;;;5040003;28;20042;-89
2021/03/18 09:57:13;;;;;;;13.63;7.25;;;8.80;85.40;;;;;;5018344;28;20132;-87
2021/03/18 09:59:42;;;;;;;11.02;7.30;;;9.10;81.70;;;;;;5034944;28;20405;-88
2021/03/18 10:02:09;;;;;;;13.13;7.80;;;9.00;75.60;;;;;;5033229;28;20373;-88
2021/03/18 10:04:40;;;;;;;13.35;7.95;;;8.30;86.10;;;;;;5034045;28;20064;-88
2021/03/18 10:07:10;;;;;;;11.55;8.00;;;7.80;91.70;;;;;;5033755;28;20096;-88
2021/03/18 10:09:45;;;;;;;12.68;8.23;;;7.40;91.40;;;;;;5034353;28;20052;-86
2021/03/18 10:12:25;;;;;;;12.32;8.13;;;7.00;94.30;;;;;;5018561;28;20049;-87
2021/03/18 10:15:09;;;;;;;12.85;7.32;;;6.60;97.60;;;;;;5038421;28;20136;-87
2021/03/18 10:17:41;;;;;;;12.23;7.80;;;6.20;99.90;;;;;;5029937;28;20053;-87
2021/03/18 10:20:24;;;;;;;13.25;9.00;;;5.90;99.90;;;;;;5013431;28;20073;-87
2021/03/18 10:23:19;;;;;;;14.77;8.65;;;5.70;99.90;;;;;;5028474;28;20382;-87
2021/03/18 10:25:46;;;;;;;13.27;8.68;;;5.60;99.90;;;;;;5030765;28;20053;-88
2021/03/18 10:28:18;;;;;;;13.07;8.60;;;5.80;99.90;;;;;;5033576;28;20095;-85
2021/03/18 10:30:54;;;;;;;12.50;8.52;;;5.80;99.90;;;;;;5035310;28;20083;-86
2021/03/18 10:33:27;;;;;;;15.88;8.77;;;5.80;99.90;;;;;;5014648;28;20120;-87
2021/03/18 10:35:55;;;;;;;;;;;5.70;99.90;;;;;;5036361;28;20548;-88
2021/03/18 10:38:27;;;;;;;11.70;6.93;;;5.70;99.90;;;;;;5018194;28;19972;-89
2021/03/18 10:40:55;;;;;;;14.88;8.35;;;5.80;99.90;;;;;;5017401;28;20049;-85
2021/03/18 10:43:29;;;;;;;12.45;7.47;;;6.00;99.90;;;;;;5029908;28;20045;-87
2021/03/18 10:46:14;;;;;;;12.57;7.72;;;6.00;99.90;;;;;;5028242;28;20049;-87
2021/03/18 10:48:46;;;;;;;12.57;7.72;;;6.00;99.90;;;;;;5033450;28;20050;-85
2021/03/18 10:51:15;;;;;;;12.90;7.20;;;6.00;99.90;;;;;;5013070;28;20053;-86
2021/03/18 10:53:44;;;;;;;13.07;7.38;;;5.60;99.50;;;;;;5014431;28;20057;-89
2021/03/18 10:56:17;;;;;;;15.85;8.85;;;5.30;99.90;;;;;;5034410;28;20045;-87
2021/03/18 10:58:47;;;;;;;15.38;9.27;;;5.10;99.90;;;;;;5035081;28;20049;-88
2021/03/18 11:01:24;;;;;;;14.10;8.93;;;5.00;99.90;;;;;;5039339;28;20042;-89
2021/03/18 11:04:00;;;;;;;12.57;6.50;;;5.00;99.90;;;;;;5045270;28;20038;-89
2021/03/18 11:06:28;;;;;;;10.02;6.93;;;4.90;99.90;;;;;;5048491;28;20050;-89
2021/03/18 11:08:56;;;;;;;11.25;7.47;;;4.80;99.90;;;;;;5037149;28;20049;-89
2021/03/18 11:11:28;;;;;;;12.15;7.00;;;4.90;99.90;;;;;;5031454;28;20431;-88
2021/03/18 11:14:09;;;;;;;10.95;6.82;;;4.90;99.90;;;;;;5031024;28;20056;-86
2021/03/18 11:16:37;;;;;;;10.73;6.85;;;5.10;99.90;;;;;;5015811;28;20050;-87
2021/03/18 11:19:08;;;;;;;15.60;6.40;;;5.10;99.90;;;;;;5034177;28;20455;-89
2021/03/18 11:21:37;;;;;;;15.02;8.77;;;5.20;99.90;;;;;;5033271;28;20047;-87
2021/03/18 11:24:11;;;;;;;11.35;6.38;;;5.10;99.90;;;;;;5016877;28;20038;-89
2021/03/18 11:26:41;;;;;;;10.05;5.78;;;4.90;97.80;;;;;;5035143;28;20055;-89
2021/03/18 11:29:12;;;;;;;9.25;5.80;;;4.80;99.90;;;;;;5008790;28;20509;-88
2021/03/18 11:31:44;;;;;;;9.90;5.80;;;4.80;98.00;;;;;;5012706;28;20107;-89
2021/03/18 11:34:13;;;;;;;11.90;5.00;;;4.80;99.90;;;;;;5031263;28;20107;-89
2021/03/18 11:36:42;;;;;;;8.48;5.20;;;5.00;94.10;;;;;;5015413;28;20049;-89
2021/03/18 11:39:09;;;;;;;10.23;5.53;;;5.30;94.90;;;;;;5017258;28;20057;-89
2021/03/18 11:41:35;;;;;;;8.95;5.10;;;5.40;99.90;;;;;;5031457;28;20482;-89
2021/03/18 11:44:05;;;;;;;9.90;5.82;;;5.60;96.00;;;;;;5032215;28;20048;-86
2021/03/18 11:46:34;;;;;;;8.25;5.30;;;5.90;99.60;;;;;;5037449;28;20114;-86
2021/03/18 11:49:06;;;;;;;9.23;5.25;;;6.20;89.60;;;;;;5036599;28;20041;-86
2021/03/18 11:51:36;;;;;;;11.77;5.22;;;6.50;84.80;;;;;;5045176;28;20446;-87
2021/03/18 11:54:14;;;;;;;8.80;5.35;;;6.60;81.60;;;;;;5042362;28;20053;-87
2021/03/18 11:56:41;;;;;;;8.35;5.55;;;6.80;84.80;;;;;;5030229;28;20041;-87
2021/03/18 11:59:13;;;;;;;11.10;5.97;;;6.90;86.70;;;;;;5031839;28;20423;-90
2021/03/18 12:01:42;;;;;;;7.80;5.47;;;7.00;87.50;;;;;;5031974;28;20382;-87
2021/03/18 12:04:13;;;;;;;9.30;5.10;;;7.10;83.00;;;;;;5017728;28;20487;-88
2021/03/18 12:06:41;;;;;;;10.15;5.10;;;7.00;83.50;;;;;;5036059;28;20076;-86
2021/03/18 12:09:23;;;;;;;;;;;;;;;;;;;;;
2021/03/18 12:11:53;;;;;;;5.72;4.80;;;7.20;83.50;;;;;;5035113;28;20061;-87
2021/03/18 12:14:39;;;;;;;7.47;5.30;;;7.30;80.20;;;;;;5020403;28;20056;-88
2021/03/18 12:17:10;;;;;;;8.45;5.13;;;7.20;76.70;;;;;;5022835;28;20046;-88
2021/03/18 12:19:37;;;;;;;6.05;4.95;;;7.20;77.80;;;;;;5019614;28;20050;-88
2021/03/18 12:22:26;;;;;;;7.03;4.40;;;7.50;71.60;;;;;;5015073;28;20045;-90
2021/03/18 12:25:11;;;;;;;6.22;4.45;;;8.70;73.90;;;;;;5024289;28;20115;-89
2021/03/18 12:27:37;;;;;;;11.57;4.90;;;10.00;71.40;;;;;;5046267;28;20053;-90
2021/03/18 12:30:19;;;;;;;5.88;4.47;;;11.30;60.10;;;;;;5052323;28;20060;-90
2021/03/18 12:32:47;;;;;;;8.27;4.07;;;12.70;56.60;;;;;;5054361;28;20116;-90
2021/03/18 12:35:16;;;;;;;7.60;4.70;;;12.70;55.10;;;;;;5050947;28;20462;-86
2021/03/18 12:37:47;;;;;;;7.30;4.35;;;12.20;54.10;;;;;;5048201;28;20084;-86
2021/03/18 12:40:15;;;;;;;8.65;4.90;;;11.20;55.60;;;;;;5047316;28;20060;-88
2021/03/18 12:42:43;;;;;;;6.13;4.28;;;10.90;56.80;;;;;;5023073;28;20041;-89
2021/03/18 12:45:16;;;;;;;8.02;4.82;;;10.50;60.50;;;;;;5042554;28;20046;-89
2021/03/18 12:47:42;;;;;;;6.72;4.70;;;10.40;60.70;;;;;;5025201;28;20111;-88
2021/03/18 12:50:19;;;;;;;7.50;4.43;;;10.20;61.00;;;;;;5023470;28;20060;-89
2021/03/18 12:53:11;;;;;;;7.40;4.78;;;10.20;61.40;;;;;;5023130;28;20064;-87
2021/03/18 12:55:43;;;;;;;6.65;3.97;;;10.10;64.60;;;;;;5023983;28;20058;-88
2021/03/18 12:58:12;;;;;;;6.30;4.20;;;9.80;64.70;;;;;;5025664;28;20415;-89
2021/03/18 13:00:42;;;;;;;7.80;3.88;;;9.10;71.50;;;;;;5021720;28;20072;-88
2021/03/18 13:03:14;;;;;;;6.82;4.32;;;8.40;76.80;;;;;;5029279;28;20060;-88
2021/03/18 13:05:55;;;;;;;8.32;4.45;;;8.00;81.40;;;;;;5046807;28;20061;-89
2021/03/18 13:08:21;;;;;;;6.57;5.05;;;7.40;84.20;;;;;;5037734;28;20045;-88
2021/03/18 13:10:48;;;;;;;8.13;5.05;;;6.90;93.80;;;;;;5049110;28;20060;-87
2021/03/18 13:13:17;;;;;;;7.00;5.43;;;6.70;91.60;;;;;;5039504;28;20477;-88
2021/03/18 13:15:44;;;;;;;7.15;5.18;;;6.50;93.60;;;;;;5036786;28;20064;-86